Time;durP1;ratioP1;P1;durP2;ratioP2;P2;SDS_P1;SDS_P2;PMS_P1;PMS_P2;Temp;Humidity;BMP_temperature;BMP_pressure;BME280_temperature;BME280_humidity;BME280_pressure;Samples;Min_cycle;Max_cycle;Signal;HPM_P1;HPM_P2
2023/09/06 00:00:34;;;;;;;0.10;0.10;;;;;;;21.08;100.00;101955.00;2077624;28;20192;-67
2023/09/06 00:01:34;;;;;;;0.33;0.20;;;;;;;21.44;100.00;102019.78;2078584;28;21162;-67
2023/09/06 00:02:35;;;;;;;0.00;0.00;;;;;;;21.44;100.00;102011.31;2076490;28;20181;-67
2023/09/06 00:03:37;;;;;;;0.00;0.00;;;;;;;21.43;100.00;102024.63;2077241;28;20292;-67
2023/09/06 00:04:37;;;;;;;0.20;0.20;;;;;;;21.39;100.00;102009.13;2076718;28;20184;-67
2023/09/06 00:05:41;;;;;;;0.00;0.00;;;;;;;21.43;100.00;102016.16;2075868;28;20192;-67
2023/09/06 00:06:42;;;;;;;0.10;0.10;;;;;;;21.45;100.00;102022.09;2076301;28;20658;-67
2023/09/06 00:07:44;;;;;;;0.10;0.10;;;;;;;21.33;100.00;102000.53;2085798;28;20291;-67
2023/09/06 00:08:45;;;;;;;0.30;0.20;;;;;;;21.51;100.00;102022.25;2076460;28;20709;-67
2023/09/06 00:09:45;;;;;;;0.10;0.10;;;;;;;21.47;100.00;102025.25;2077762;28;20199;-67
2023/09/06 00:10:47;;;;;;;0.10;0.10;;;;;;;21.46;100.00;102017.25;2076681;28;20724;-67
2023/09/06 00:11:48;;;;;;;0.23;0.20;;;;;;;21.42;100.00;102022.28;2076700;28;20193;-68
2023/09/06 00:12:48;;;;;;;0.10;0.10;;;;;;;21.42;100.00;102030.72;2076513;28;20200;-68
2023/09/06 00:13:48;;;;;;;0.10;0.10;;;;;;;21.37;100.00;102025.72;2076590;28;20188;-67
2023/09/06 00:14:49;;;;;;;0.13;0.13;;;;;;;21.31;100.00;102022.78;2076610;28;20181;-68
2023/09/06 00:15:49;;;;;;;0.40;0.40;;;;;;;19.53;100.00;101752.00;2077191;28;20311;-67
2023/09/06 00:16:50;;;;;;;0.20;0.20;;;;;;;21.20;100.00;102027.34;2076483;28;20189;-67
2023/09/06 00:17:50;;;;;;;0.10;0.10;;;;;;;21.18;100.00;102027.81;2076026;28;20673;-67
2023/09/06 00:18:51;;;;;;;0.10;0.10;;;;;;;21.12;100.00;102029.69;2084336;28;20680;-68
2023/09/06 00:19:52;;;;;;;0.10;0.10;;;;;;;20.35;100.00;101914.03;2079449;28;20197;-67
2023/09/06 00:21:48;;;;;;;0.10;0.10;;;;;;;21.01;100.00;102022.97;2075888;28;20192;-67
2023/09/06 00:22:57;;;;;;;0.00;0.00;;;;;;;20.84;100.00;102007.59;2077420;28;20279;-67
2023/09/06 00:23:58;;;;;;;0.30;0.30;;;;;;;20.10;100.00;101897.44;2076706;28;20201;-67
2023/09/06 00:24:58;;;;;;;0.47;0.47;;;;;;;20.81;100.00;102022.63;2077295;28;20504;-67
2023/09/06 00:25:58;;;;;;;0.00;0.00;;;;;;;20.77;100.00;102019.19;2076866;28;20718;-67
2023/09/06 00:27:03;;;;;;;0.17;0.17;;;;;;;19.70;100.00;101857.34;2082909;28;20211;-67
2023/09/06 00:28:05;;;;;;;0.10;0.10;;;;;;;20.60;100.00;102018.72;2079359;28;20193;-67
2023/09/06 00:29:07;;;;;;;0.10;0.10;;;;;;;19.84;100.00;101912.97;2083110;28;20666;-67
2023/09/06 00:30:07;;;;;;;0.00;0.00;;;;;;;20.14;100.00;101972.03;2079892;28;20189;-68
2023/09/06 00:31:08;;;;;;;0.10;0.10;;;;;;;20.36;100.00;102022.59;2076530;28;20239;-67
2023/09/06 00:32:10;;;;;;;0.20;0.20;;;;;;;20.32;100.00;102025.53;2076666;28;20189;-67
2023/09/06 00:33:42;;;;;;;0.30;0.30;;;;;;;20.26;100.00;102021.00;2083598;28;20441;-68
2023/09/06 00:34:42;;;;;;;0.10;0.10;;;;;;;20.20;100.00;102029.28;2081050;28;20458;-68
2023/09/06 00:35:43;;;;;;;0.20;0.20;;;;;;;20.13;100.00;102028.78;2075765;28;20520;-67
2023/09/06 00:36:44;;;;;;;0.23;0.23;;;;;;;19.91;100.00;102036.50;2075807;28;20591;-67
2023/09/06 00:37:44;;;;;;;0.10;0.10;;;;;;;19.15;100.00;101917.38;2076413;28;20189;-67
2023/09/06 00:38:45;;;;;;;0.20;0.20;;;;;;;19.80;100.00;102028.47;2082556;28;20269;-67
2023/09/06 00:39:45;;;;;;;0.00;0.00;;;;;;;19.83;100.00;102041.63;2076993;28;20231;-67
2023/09/06 00:40:51;;;;;;;0.10;0.10;;;;;;;19.78;100.00;102036.59;2076594;28;20204;-67
2023/09/06 00:41:51;;;;;;;0.17;0.10;;;;;;;19.71;100.00;102061.41;2078738;28;20262;-67
2023/09/06 00:43:02;;;;;;;0.10;0.10;;;;;;;19.66;100.00;102054.31;2079044;28;20451;-67
2023/09/06 00:44:03;;;;;;;0.10;0.10;;;;;;;19.34;100.00;101994.97;2079329;28;20288;-67
2023/09/06 00:45:04;;;;;;;0.10;0.10;;;;;;;19.51;100.00;102028.03;2076252;28;20438;-67
2023/09/06 00:46:07;;;;;;;0.13;0.10;;;;;;;19.50;100.00;102040.50;2076769;28;20212;-67
2023/09/06 00:47:07;;;;;;;0.10;0.10;;;;;;;19.47;100.00;102047.06;2083302;28;20656;-67
2023/09/06 00:48:09;;;;;;;0.10;0.10;;;;;;;19.36;100.00;102031.81;2083485;28;21937;-67
2023/09/06 00:49:10;;;;;;;0.20;0.20;;;;;;;19.40;100.00;102046.53;2085046;28;20669;-67
2023/09/06 00:50:11;;;;;;;0.23;0.20;;;;;;;19.10;100.00;102002.28;2077572;28;20856;-67
2023/09/06 00:51:11;;;;;;;0.20;0.20;;;;;;;18.32;100.00;101869.53;2084949;28;20199;-67
2023/09/06 00:52:12;;;;;;;0.27;0.20;;;;;;;19.42;100.00;102044.03;2079293;28;20785;-67
2023/09/06 00:53:13;;;;;;;0.10;0.10;;;;;;;19.39;100.00;102042.94;2079649;28;20208;-67
2023/09/06 00:54:14;;;;;;;0.10;0.10;;;;;;;19.31;100.00;102046.47;2076764;28;21418;-67
2023/09/06 00:55:16;;;;;;;0.10;0.10;;;;;;;19.30;100.00;102047.72;2082507;28;20214;-67
2023/09/06 00:56:17;;;;;;;0.30;0.30;;;;;;;19.32;100.00;102056.47;2083426;28;20473;-67
2023/09/06 00:57:17;;;;;;;0.20;0.10;;;;;;;19.33;100.00;102043.97;2084132;28;20564;-69
2023/09/06 00:58:19;;;;;;;0.10;0.10;;;;;;;19.32;100.00;102040.41;2077745;28;20428;-67
2023/09/06 00:59:23;;;;;;;0.13;0.13;;;;;;;19.35;100.00;102042.28;2076894;28;20197;-67
2023/09/06 01:00:24;;;;;;;0.10;0.10;;;;;;;19.37;100.00;102051.06;2076818;28;20983;-67
2023/09/06 01:01:25;;;;;;;0.10;0.10;;;;;;;19.40;100.00;102041.69;2077919;28;20451;-67
2023/09/06 01:02:26;;;;;;;0.10;0.10;;;;;;;19.41;100.00;102046.09;2079024;28;20487;-67
2023/09/06 01:03:26;;;;;;;0.00;0.00;;;;;;;19.42;100.00;102046.84;2080703;28;20221;-67
2023/09/06 01:04:27;;;;;;;0.20;0.20;;;;;;;19.34;100.00;102037.13;2076821;28;20452;-67
2023/09/06 01:05:33;;;;;;;0.10;0.10;;;;;;;19.40;100.00;102041.69;2076870;28;20185;-67
2023/09/06 01:06:35;;;;;;;0.10;0.10;;;;;;;19.42;100.00;102046.84;2076743;28;20180;-67
2023/09/06 01:07:38;;;;;;;0.10;0.10;;;;;;;19.42;100.00;102041.22;2084377;28;20437;-67
2023/09/06 01:08:45;;;;;;;0.10;0.10;;;;;;;19.32;100.00;102045.22;2077471;28;20438;-67
2023/09/06 01:09:46;;;;;;;0.23;0.23;;;;;;;19.25;100.00;102034.25;2077919;28;20772;-67
2023/09/06 01:10:47;;;;;;;0.10;0.10;;;;;;;19.22;100.00;102038.78;2077166;28;20908;-67
2023/09/06 01:11:47;;;;;;;0.10;0.10;;;;;;;19.16;100.00;102042.59;2077170;28;20335;-67
2023/09/06 01:12:48;;;;;;;0.10;0.10;;;;;;;19.10;100.00;102036.78;2076631;28;20224;-67
2023/09/06 01:13:54;;;;;;;0.10;0.10;;;;;;;19.18;100.00;102043.69;2076739;28;20196;-67
2023/09/06 01:14:54;;;;;;;0.10;0.10;;;;;;;19.16;100.00;102046.19;2076521;28;20193;-67
2023/09/06 01:15:56;;;;;;;0.00;0.00;;;;;;;19.13;100.00;102037.91;2076411;28;20616;-67
2023/09/06 01:16:57;;;;;;;0.20;0.20;;;;;;;19.11;100.00;102041.16;2082038;28;20192;-67
2023/09/06 01:18:02;;;;;;;0.10;0.10;;;;;;;19.11;100.00;102041.16;2076502;28;20832;-69
2023/09/06 01:19:05;;;;;;;0.10;0.10;;;;;;;19.12;100.00;102044.75;2085409;28;20463;-70
2023/09/06 01:20:29;;;;;;;0.20;0.20;;;;;;;19.10;100.00;102055.66;2077253;28;20454;-70
2023/09/06 01:21:47;;;;;;;0.00;0.00;;;;;;;19.00;100.00;102043.56;2076777;28;21015;-70
2023/09/06 01:22:56;;;;;;;0.10;0.10;;;;;;;19.08;100.00;102044.09;2081794;28;20425;-70
2023/09/06 01:23:59;;;;;;;0.10;0.10;;;;;;;19.03;100.00;102045.47;2076624;28;20469;-70
2023/09/06 01:24:59;;;;;;;0.00;0.00;;;;;;;18.50;100.00;101967.16;2076422;28;20494;-67
2023/09/06 01:26:01;;;;;;;0.10;0.10;;;;;;;18.98;100.00;102048.09;2076635;28;20951;-67
2023/09/06 01:27:02;;;;;;;0.83;0.83;;;;;;;18.96;100.00;102045.72;2077195;28;20238;-67
2023/09/06 01:28:03;;;;;;;0.20;0.10;;;;;;;18.87;100.00;102034.41;2077143;28;20465;-67
2023/09/06 01:29:04;;;;;;;0.20;0.20;;;;;;;18.97;100.00;102046.50;2080617;28;20434;-67
2023/09/06 01:30:07;;;;;;;0.13;0.13;;;;;;;18.97;100.00;102040.88;2079004;28;20195;-67
2023/09/06 01:31:07;;;;;;;0.20;0.20;;;;;;;18.95;100.00;102044.16;2079811;28;20197;-67
2023/09/06 01:32:08;;;;;;;0.23;0.20;;;;;;;18.95;100.00;102043.38;2076480;28;20439;-67
2023/09/06 01:33:08;;;;;;;0.40;0.20;;;;;;;18.94;100.00;102045.38;2076241;28;20192;-67
2023/09/06 01:34:08;;;;;;;0.63;0.53;;;;;;;18.88;100.00;102044.41;2077170;28;20643;-67
2023/09/06 01:35:10;;;;;;;0.20;0.17;;;;;;;18.88;100.00;102047.19;2075704;28;20592;-70
2023/09/06 01:36:10;;;;;;;0.43;0.40;;;;;;;18.83;100.00;102042.16;2085291;28;20182;-70
2023/09/06 01:37:11;;;;;;;0.07;0.07;;;;;;;18.82;100.00;102046.22;2077170;28;20451;-70
2023/09/06 01:38:11;;;;;;;0.00;0.00;;;;;;;18.83;100.00;102044.97;2080490;28;20203;-70
2023/09/06 01:39:12;;;;;;;0.43;0.20;;;;;;;18.82;100.00;102046.22;2079434;28;20191;-70
2023/09/06 01:40:15;;;;;;;0.10;0.10;;;;;;;18.82;100.00;102037.00;2076528;28;20345;-70
2023/09/06 01:41:15;;;;;;;0.20;0.20;;;;;;;18.83;100.00;102044.22;2076744;28;20215;-70
2023/09/06 01:42:22;;;;;;;0.33;0.30;;;;;;;18.83;100.00;102049.81;2077857;28;20889;-70
2023/09/06 01:43:22;;;;;;;0.23;0.17;;;;;;;18.82;100.00;102043.41;2083224;28;20187;-70
2023/09/06 01:44:23;;;;;;;0.60;0.20;;;;;;;18.83;100.00;102041.41;2076582;28;20461;-70
2023/09/06 01:45:23;;;;;;;0.20;0.20;;;;;;;18.83;100.00;102049.81;2077518;28;20197;-70
2023/09/06 01:46:23;;;;;;;0.23;0.23;;;;;;;18.82;100.00;102051.03;2076731;28;20189;-70
2023/09/06 01:47:25;;;;;;;0.10;0.10;;;;;;;17.85;100.00;101896.81;2076311;28;20201;-70
2023/09/06 01:48:25;;;;;;;0.40;0.20;;;;;;;18.54;100.00;102010.72;2076232;28;20273;-70
2023/09/06 01:49:28;;;;;;;0.10;0.10;;;;;;;18.80;100.00;102050.72;2076251;28;20940;-70
2023/09/06 01:50:28;;;;;;;0.10;0.10;;;;;;;18.55;100.00;102015.09;2076226;28;20207;-70
2023/09/06 01:51:31;;;;;;;0.10;0.10;;;;;;;18.78;100.00;102048.38;2078130;28;20431;-70
2023/09/06 01:52:31;;;;;;;0.40;0.40;;;;;;;17.84;100.00;101898.06;2083154;28;20700;-70
2023/09/06 01:53:32;;;;;;;0.20;0.20;;;;;;;18.79;100.00;102049.16;2076014;28;20415;-70
2023/09/06 01:54:32;;;;;;;0.30;0.10;;;;;;;18.79;100.00;102051.97;2076826;28;20192;-70
2023/09/06 01:55:32;;;;;;;0.20;0.20;;;;;;;18.76;100.00;102045.22;2076084;28;20577;-70
2023/09/06 01:56:33;;;;;;;0.13;0.13;;;;;;;18.75;100.00;102056.91;2075987;28;20575;-69
2023/09/06 01:57:33;;;;;;;0.23;0.23;;;;;;;18.75;100.00;102054.09;2076243;28;20206;-70
2023/09/06 01:58:34;;;;;;;0.33;0.20;;;;;;;18.68;100.00;102043.13;2076555;28;20196;-70
2023/09/06 01:59:36;;;;;;;0.20;0.20;;;;;;;18.73;100.00;102056.59;2075988;28;20199;-70
2023/09/06 02:00:37;;;;;;;0.10;0.10;;;;;;;18.69;100.00;102044.69;2075929;28;20435;-70
2023/09/06 02:01:38;;;;;;;0.20;0.20;;;;;;;18.72;100.00;102049.41;2076401;28;20432;-68
2023/09/06 02:02:38;;;;;;;0.13;0.13;;;;;;;18.68;100.00;102043.13;2076651;28;20439;-67
2023/09/06 02:03:39;;;;;;;1.13;1.03;;;;;;;18.66;100.00;102048.41;2076265;28;20224;-67
2023/09/06 02:04:39;;;;;;;0.07;0.07;;;;;;;18.64;100.00;102048.09;2075916;28;20189;-67
2023/09/06 02:05:43;;;;;;;0.10;0.10;;;;;;;18.62;100.00;102042.91;2076132;28;20199;-67
2023/09/06 02:06:43;;;;;;;2.17;0.20;;;;;;;18.61;100.00;102054.59;2079644;28;20211;-67
2023/09/06 02:07:46;;;;;;;0.93;0.60;;;;;;;18.56;100.00;102041.94;2076189;28;20454;-67
2023/09/06 02:08:47;;;;;;;0.17;0.13;;;;;;;18.55;100.00;102050.78;2081877;28;20709;-67
2023/09/06 02:09:47;;;;;;;0.10;0.10;;;;;;;18.51;100.00;102047.31;2077524;28;20809;-67
2023/09/06 02:10:47;;;;;;;0.13;0.13;;;;;;;18.38;100.00;102032.53;2084047;28;20191;-67
2023/09/06 02:11:48;;;;;;;0.37;0.10;;;;;;;18.49;100.00;102044.97;2076875;28;20276;-67
2023/09/06 02:12:48;;;;;;;0.20;0.20;;;;;;;18.41;100.00;102051.25;2075805;28;20283;-69
2023/09/06 02:13:49;;;;;;;0.40;0.40;;;;;;;18.42;100.00;102048.00;2076316;28;20195;-70
2023/09/06 02:14:52;;;;;;;0.10;0.10;;;;;;;18.31;100.00;102046.78;2075972;28;20189;-70
2023/09/06 02:15:52;;;;;;;0.13;0.13;;;;;;;17.94;100.00;101987.44;2079524;28;20231;-70
2023/09/06 02:17:12;;;;;;;0.10;0.10;;;;;;;18.22;100.00;102047.44;2081081;28;20943;-70
2023/09/06 02:18:15;;;;;;;0.27;0.27;;;;;;;18.21;100.00;102036.69;2079296;28;20551;-70
2023/09/06 02:19:15;;;;;;;0.20;0.20;;;;;;;18.11;100.00;102032.22;2076897;28;20584;-70
2023/09/06 02:20:19;;;;;;;0.07;0.00;;;;;;;18.03;100.00;102045.69;2078489;28;20443;-69
2023/09/06 02:21:20;;;;;;;0.10;0.10;;;;;;;17.93;100.00;102029.97;2084504;28;20192;-69
2023/09/06 02:22:20;;;;;;;0.13;0.07;;;;;;;17.99;100.00;102047.81;2083728;28;20423;-69
2023/09/06 02:23:22;;;;;;;0.37;0.37;;;;;;;17.12;100.00;101911.19;2076633;28;20192;-69
2023/09/06 02:24:22;;;;;;;0.20;0.20;;;;;;;18.02;100.00;102048.94;2076100;28;20294;-69
2023/09/06 02:25:29;;;;;;;0.10;0.10;;;;;;;18.03;100.00;102048.50;2076191;28;20445;-69
2023/09/06 02:26:30;;;;;;;0.10;0.10;;;;;;;17.97;100.00;102060.72;2077550;28;20213;-69
2023/09/06 02:27:31;;;;;;;0.30;0.30;;;;;;;18.00;100.00;102055.00;2076513;28;20450;-70
2023/09/06 02:28:33;;;;;;;0.23;0.17;;;;;;;18.02;100.00;102052.50;2080735;28;20752;-69
2023/09/06 02:29:33;;;;;;;0.20;0.20;;;;;;;18.01;100.00;102050.94;2082374;28;20501;-69
2023/09/06 02:30:37;;;;;;;0.10;0.10;;;;;;;18.01;100.00;102052.97;2077475;28;20424;-70
2023/09/06 02:31:38;;;;;;;0.20;0.20;;;;;;;18.01;100.00;102053.75;2084523;28;20246;-70
2023/09/06 02:32:38;;;;;;;0.10;0.10;;;;;;;17.97;100.00;102050.25;2077418;28;20676;-70
2023/09/06 02:33:39;;;;;;;0.10;0.10;;;;;;;17.93;100.00;102055.22;2078381;28;20188;-69
2023/09/06 02:34:40;;;;;;;1.40;0.37;;;;;;;17.86;100.00;102054.66;2077512;28;20192;-69
2023/09/06 02:35:41;;;;;;;0.10;0.10;;;;;;;17.81;100.00;102055.22;2077547;28;20447;-69
2023/09/06 02:36:41;;;;;;;0.60;0.60;;;;;;;17.82;100.00;102053.97;2077340;28;20207;-70
2023/09/06 02:37:42;;;;;;;0.67;0.53;;;;;;;17.80;100.00;102054.41;2077825;28;20435;-70
2023/09/06 02:38:42;;;;;;;0.10;0.10;;;;;;;17.81;100.00;102060.81;2080666;28;20734;-70
2023/09/06 02:39:43;;;;;;;0.57;0.20;;;;;;;17.81;100.00;102055.22;2077559;28;20275;-70
2023/09/06 02:40:43;;;;;;;0.10;0.10;;;;;;;17.23;100.00;101960.06;2077473;28;20181;-70
2023/09/06 02:41:45;;;;;;;0.20;0.20;;;;;;;17.82;100.00;102057.59;2078298;28;20188;-70
2023/09/06 02:42:48;;;;;;;0.10;0.10;;;;;;;17.74;100.00;102042.19;2077530;28;20199;-70
2023/09/06 02:43:49;;;;;;;0.23;0.17;;;;;;;17.84;100.00;102052.31;2078692;28;20467;-69
2023/09/06 02:44:50;;;;;;;0.23;0.23;;;;;;;17.83;100.00;102054.31;2080020;28;20935;-70
2023/09/06 02:45:53;;;;;;;0.13;0.13;;;;;;;17.83;100.00;102052.75;2079720;28;20230;-70
2023/09/06 02:46:54;;;;;;;0.10;0.10;;;;;;;17.81;100.00;102056.00;2077211;28;20447;-70
2023/09/06 02:47:54;;;;;;;0.17;0.17;;;;;;;17.61;100.00;102018.19;2078386;28;20449;-70
2023/09/06 02:48:58;;;;;;;0.10;0.10;;;;;;;17.83;100.00;102054.31;2078327;28;20192;-70
2023/09/06 02:49:59;;;;;;;0.30;0.20;;;;;;;17.85;100.00;102048.25;2085393;28;20185;-70
2023/09/06 02:50:59;;;;;;;0.10;0.10;;;;;;;17.34;100.00;101966.13;2086473;28;20966;-70
2023/09/06 02:52:00;;;;;;;0.10;0.10;;;;;;;17.67;100.00;102012.34;2078365;28;20200;-70
2023/09/06 02:53:02;;;;;;;0.10;0.10;;;;;;;17.92;100.00;102052.88;2078279;28;20280;-70
2023/09/06 02:54:02;;;;;;;0.30;0.30;;;;;;;17.87;100.00;102036.59;2080263;28;20192;-70
2023/09/06 02:55:05;;;;;;;0.30;0.30;;;;;;;17.88;100.00;102035.34;2081180;28;20442;-70
2023/09/06 02:56:05;;;;;;;0.20;0.20;;;;;;;17.92;100.00;102046.00;2081872;28;20972;-70
2023/09/06 02:57:05;;;;;;;0.10;0.10;;;;;;;17.93;100.00;102049.63;2078079;28;24724;-69
2023/09/06 02:58:07;;;;;;;0.20;0.20;;;;;;;17.94;100.00;102046.34;2084430;28;20695;-70
2023/09/06 02:59:12;;;;;;;0.10;0.10;;;;;;;17.97;100.00;102049.50;2085251;28;20230;-70
2023/09/06 03:00:24;;;;;;;0.70;0.47;;;;;;;17.94;100.00;102048.38;2085870;28;20958;-69
2023/09/06 03:01:25;;;;;;;0.20;0.20;;;;;;;17.82;100.00;102039.97;2077664;28;20792;-70
2023/09/06 03:02:25;;;;;;;0.10;0.10;;;;;;;17.86;100.00;102051.84;2078267;28;20428;-70
2023/09/06 03:03:30;;;;;;;0.10;0.10;;;;;;;17.62;100.00;102014.16;2077822;28;20233;-70
2023/09/06 03:04:37;;;;;;;0.10;0.10;;;;;;;17.88;100.00;102049.38;2077506;28;20670;-70
2023/09/06 03:05:41;;;;;;;0.20;0.20;;;;;;;17.11;100.00;101934.81;2079036;28;20904;-70
2023/09/06 03:06:43;;;;;;;0.13;0.13;;;;;;;17.82;100.00;102051.19;2079914;28;20818;-70
2023/09/06 03:07:48;;;;;;;0.20;0.20;;;;;;;17.65;100.00;102044.09;2081309;28;20851;-70
2023/09/06 03:08:51;;;;;;;0.10;0.10;;;;;;;17.83;100.00;102053.53;2081623;28;20443;-69
2023/09/06 03:09:51;;;;;;;0.20;0.20;;;;;;;17.87;100.00;102061.84;2077513;28;20438;-70
2023/09/06 03:10:54;;;;;;;0.20;0.20;;;;;;;17.83;100.00;102050.72;2079379;28;20424;-69
2023/09/06 03:11:55;;;;;;;0.20;0.20;;;;;;;17.88;100.00;102052.97;2084285;28;20198;-69
2023/09/06 03:12:57;;;;;;;0.17;0.17;;;;;;;17.88;100.00;102049.38;2077184;28;20423;-70
2023/09/06 03:13:58;;;;;;;0.40;0.40;;;;;;;17.48;100.00;101989.34;2085900;28;20195;-70
2023/09/06 03:14:59;;;;;;;0.13;0.13;;;;;;;17.85;100.00;102042.66;2085241;28;20439;-70
2023/09/06 03:16:00;;;;;;;0.20;0.10;;;;;;;17.93;100.00;102052.41;2079087;28;20205;-69
2023/09/06 03:17:08;;;;;;;0.10;0.10;;;;;;;17.93;100.00;102053.19;2077341;28;20440;-70
2023/09/06 03:18:10;;;;;;;0.10;0.10;;;;;;;17.84;100.00;102029.88;2085339;28;20584;-70
2023/09/06 03:19:10;;;;;;;1.03;0.70;;;;;;;17.60;100.00;101989.34;2081351;28;20466;-70
2023/09/06 03:21:41;;;;;;;0.10;0.10;;;;;;;17.96;100.00;102043.09;2073019;28;20212;-69
2023/09/06 03:22:42;;;;;;;0.10;0.10;;;;;;;16.83;100.00;101869.25;2076780;28;20442;-70
2023/09/06 03:23:44;;;;;;;0.20;0.20;;;;;;;17.87;100.00;102033.78;2077372;28;20223;-69
2023/09/06 03:24:44;;;;;;;0.10;0.10;;;;;;;17.98;100.00;102049.06;2077295;28;20311;-70
2023/09/06 03:25:50;;;;;;;0.10;0.10;;;;;;;17.92;100.00;102040.41;2077598;28;20944;-69
2023/09/06 03:26:51;;;;;;;0.10;0.10;;;;;;;17.82;100.00;102017.53;2077300;28;20195;-70
2023/09/06 03:27:59;;;;;;;1.90;0.83;;;;;;;18.01;100.00;102053.75;2077687;28;20509;-70
2023/09/06 03:29:00;;;;;;;0.10;0.10;;;;;;;18.02;100.00;102053.31;2080537;28;20400;-70
2023/09/06 03:30:00;;;;;;;0.10;0.10;;;;;;;18.02;100.00;102053.31;2086024;28;20943;-69
2023/09/06 03:31:01;;;;;;;0.10;0.10;;;;;;;17.59;100.00;101985.00;2078473;28;20211;-69
2023/09/06 03:32:01;;;;;;;0.20;0.20;;;;;;;18.03;100.00;102056.91;2077482;28;20676;-69
2023/09/06 03:33:05;;;;;;;0.10;0.10;;;;;;;18.03;100.00;102056.91;2081786;28;20573;-69
2023/09/06 03:34:05;;;;;;;0.17;0.17;;;;;;;17.98;100.00;102056.69;2080915;28;20188;-69
2023/09/06 03:35:08;;;;;;;0.20;0.20;;;;;;;17.99;100.00;102059.81;2077341;28;20461;-69
2023/09/06 03:36:09;;;;;;;0.20;0.20;;;;;;;17.90;100.00;102041.31;2077162;28;20726;-70
2023/09/06 03:37:10;;;;;;;0.20;0.20;;;;;;;18.03;100.00;102059.72;2077178;28;20501;-69
2023/09/06 03:38:11;;;;;;;1.10;0.60;;;;;;;18.03;100.00;102063.28;2080894;28;20517;-70
2023/09/06 03:39:12;;;;;;;0.20;0.20;;;;;;;18.02;100.00;102061.72;2077876;28;20436;-69
2023/09/06 03:40:25;;;;;;;0.13;0.13;;;;;;;17.98;100.00;102063.84;2076633;28;20250;-70
2023/09/06 03:41:25;;;;;;;0.10;0.10;;;;;;;17.97;100.00;102063.53;2084951;28;20446;-70
2023/09/06 03:42:26;;;;;;;0.23;0.20;;;;;;;17.98;100.00;102065.88;2078555;28;20968;-70
2023/09/06 03:43:30;;;;;;;0.20;0.20;;;;;;;17.92;100.00;102065.66;2077310;28;20791;-70
2023/09/06 03:44:31;;;;;;;0.10;0.10;;;;;;;17.87;100.00;102067.44;2086409;28;20187;-69
2023/09/06 03:45:34;;;;;;;0.20;0.20;;;;;;;17.80;100.00;102050.84;2082244;28;20455;-70
2023/09/06 03:46:34;;;;;;;0.20;0.20;;;;;;;18.00;100.00;102071.81;2081447;28;20224;-70
2023/09/06 03:47:35;;;;;;;0.00;0.00;;;;;;;18.01;100.00;102079.00;2083686;28;20917;-70
2023/09/06 03:48:35;;;;;;;0.10;0.10;;;;;;;18.02;100.00;102075.75;2076969;28;20189;-70
2023/09/06 03:49:36;;;;;;;0.20;0.20;;;;;;;18.02;100.00;102072.94;2077634;28;20220;-70
2023/09/06 03:50:37;;;;;;;0.37;0.30;;;;;;;18.02;100.00;102077.75;2084277;28;20187;-70
2023/09/06 03:51:37;;;;;;;0.10;0.10;;;;;;;18.02;100.00;102075.75;2078448;28;20195;-70
2023/09/06 03:52:39;;;;;;;1.90;0.70;;;;;;;18.04;100.00;102075.31;2076711;28;20761;-70
2023/09/06 03:53:39;;;;;;;0.10;0.10;;;;;;;18.02;100.00;102079.78;2077121;28;20249;-70
2023/09/06 03:54:40;;;;;;;0.30;0.30;;;;;;;18.02;100.00;102074.94;2076906;28;20495;-70
2023/09/06 03:55:44;;;;;;;0.10;0.10;;;;;;;17.98;100.00;102079.91;2077793;28;20269;-70
2023/09/06 03:56:44;;;;;;;0.27;0.27;;;;;;;17.22;100.00;101966.88;2084363;28;20483;-69
2023/09/06 03:57:45;;;;;;;0.30;0.23;;;;;;;18.00;100.00;102080.25;2084273;28;21186;-70
2023/09/06 03:58:45;;;;;;;0.17;0.10;;;;;;;18.00;100.00;102074.63;2077647;28;20181;-69
2023/09/06 03:59:46;;;;;;;0.60;0.10;;;;;;;17.98;100.00;102073.50;2077062;28;20203;-70
2023/09/06 04:00:47;;;;;;;0.10;0.10;;;;;;;17.93;100.00;102070.03;2076896;28;20227;-69
2023/09/06 04:01:48;;;;;;;0.10;0.10;;;;;;;17.88;100.00;102076.19;2076882;28;20189;-69
2023/09/06 04:02:49;;;;;;;0.10;0.10;;;;;;;17.90;100.00;102080.59;2076654;28;20445;-70
2023/09/06 04:03:50;;;;;;;0.20;0.20;;;;;;;17.99;100.00;102078.66;2076727;28;20698;-70
2023/09/06 04:04:52;;;;;;;0.00;0.00;;;;;;;17.90;100.00;102070.13;2077027;28;20581;-70
2023/09/06 04:05:53;;;;;;;0.70;0.67;;;;;;;17.94;100.00;102088.41;2082739;28;20191;-70
2023/09/06 04:06:54;;;;;;;0.13;0.13;;;;;;;17.98;100.00;102081.91;2077127;28;21001;-70
2023/09/06 04:07:57;;;;;;;0.10;0.10;;;;;;;17.92;100.00;102068.47;2077594;28;20189;-70
2023/09/06 04:08:57;;;;;;;0.30;0.30;;;;;;;17.64;100.00;102015.28;2076639;28;20464;-70
2023/09/06 04:10:01;;;;;;;0.37;0.30;;;;;;;17.97;100.00;102085.97;2076730;28;20478;-70
2023/09/06 04:11:02;;;;;;;0.50;0.50;;;;;;;17.90;100.00;102092.56;2076642;28;20197;-70
2023/09/06 04:12:03;;;;;;;0.10;0.10;;;;;;;17.91;100.00;102080.13;2076812;28;20439;-70
2023/09/06 04:13:04;;;;;;;0.20;0.20;;;;;;;17.92;100.00;102076.09;2076537;28;20205;-69
2023/09/06 04:14:05;;;;;;;0.10;0.10;;;;;;;17.87;100.00;102079.47;2079108;28;20807;-69
2023/09/06 04:15:07;;;;;;;0.20;0.20;;;;;;;17.85;100.00;102086.75;2082996;28;20504;-69
2023/09/06 04:16:08;;;;;;;0.20;0.20;;;;;;;17.83;100.00;102083.59;2083798;28;20176;-70
2023/09/06 04:17:08;;;;;;;0.20;0.20;;;;;;;17.76;100.00;102084.59;2084911;28;20487;-69
2023/09/06 04:18:12;;;;;;;0.10;0.10;;;;;;;17.76;100.00;102095.03;2077512;28;20201;-70
2023/09/06 04:19:12;;;;;;;0.37;0.37;;;;;;;17.77;100.00;102088.19;2083042;28;20208;-70
2023/09/06 04:20:18;;;;;;;0.20;0.20;;;;;;;17.76;100.00;102095.81;2079860;28;20443;-70
2023/09/06 04:21:22;;;;;;;0.20;0.20;;;;;;;17.72;100.00;102078.31;2079466;28;20389;-70
2023/09/06 04:22:23;;;;;;;0.10;0.10;;;;;;;17.82;100.00;102094.03;2079771;28;20455;-69
2023/09/06 04:23:25;;;;;;;0.10;0.10;;;;;;;17.83;100.00;102098.41;2076683;28;20450;-70
2023/09/06 04:24:25;;;;;;;0.10;0.10;;;;;;;17.83;100.00;102099.19;2078525;28;20430;-70
2023/09/06 04:25:27;;;;;;;0.63;0.47;;;;;;;17.82;100.00;102104.47;2083474;28;20429;-70
2023/09/06 04:26:27;;;;;;;0.10;0.10;;;;;;;17.50;100.00;102045.75;2076394;28;20189;-70
2023/09/06 04:27:28;;;;;;;0.60;0.60;;;;;;;17.85;100.00;102109.19;2085572;28;20988;-69
2023/09/06 04:28:28;;;;;;;0.10;0.10;;;;;;;17.83;100.00;102087.19;2078087;28;20289;-70
2023/09/06 04:29:29;;;;;;;0.10;0.10;;;;;;;17.88;100.00;102100.66;2078223;28;20196;-70
2023/09/06 04:30:30;;;;;;;0.20;0.20;;;;;;;17.92;100.00;102099.31;2076827;28;20752;-70
2023/09/06 04:31:31;;;;;;;0.10;0.10;;;;;;;17.91;100.00;102093.38;2077093;28;20664;-70
2023/09/06 04:32:31;;;;;;;0.10;0.10;;;;;;;17.96;100.00;102101.22;2076460;28;20932;-69
2023/09/06 04:33:32;;;;;;;0.23;0.20;;;;;;;17.90;100.00;102078.56;2076778;28;20197;-70
2023/09/06 04:34:33;;;;;;;0.10;0.10;;;;;;;18.02;100.00;102106.59;2078824;28;20271;-69
2023/09/06 04:35:47;;;;;;;0.37;0.33;;;;;;;18.08;100.00;102096.41;2077148;28;20198;-70
2023/09/06 04:36:48;;;;;;;0.20;0.20;;;;;;;18.16;100.00;102102.56;2076388;28;20547;-70
2023/09/06 04:37:48;;;;;;;0.10;0.10;;;;;;;18.18;100.00;102103.69;2078393;28;20476;-70
2023/09/06 04:38:48;;;;;;;0.20;0.20;;;;;;;18.03;100.00;102077.31;2077443;28;20251;-70
2023/09/06 04:39:49;;;;;;;0.13;0.13;;;;;;;18.23;100.00;102105.16;2076604;28;20276;-69
2023/09/06 04:40:51;;;;;;;0.10;0.10;;;;;;;18.27;100.00;102103.81;2077093;28;20278;-70
2023/09/06 04:41:52;;;;;;;0.10;0.10;;;;;;;18.18;100.00;102097.31;2079948;28;20231;-69
2023/09/06 04:42:52;;;;;;;0.57;0.57;;;;;;;18.12;100.00;102101.13;2076363;28;20447;-70
2023/09/06 04:43:53;;;;;;;0.23;0.23;;;;;;;18.06;100.00;102094.50;2078043;28;20706;-69
2023/09/06 04:44:53;;;;;;;0.10;0.10;;;;;;;18.07;100.00;102099.63;2077590;28;21056;-70
2023/09/06 04:45:54;;;;;;;0.30;0.20;;;;;;;17.94;100.00;102082.81;2078326;28;20190;-70
2023/09/06 04:46:55;;;;;;;0.63;0.30;;;;;;;18.06;100.00;102097.31;2077581;28;20291;-70